createdAt,value
2017-10-11T00:00:20.439Z,1008.89
2017-10-11T00:01:01.091Z,1008.92
2017-10-11T00:01:41.323Z,1008.87
2017-10-11T00:02:21.783Z,1008.91
2017-10-11T00:03:02.242Z,1008.93
2017-10-11T00:03:42.775Z,1008.94
2017-10-11T00:04:23.223Z,1008.95
2017-10-11T00:05:03.660Z,1008.92
2017-10-11T00:05:44.208Z,1008.87
2017-10-11T00:06:24.669Z,1008.89
2017-10-11T00:07:05.286Z,1008.88
2017-10-11T00:07:45.784Z,1008.88
2017-10-11T00:08:26.220Z,1008.89
2017-10-11T00:09:06.710Z,1008.91
2017-10-11T00:09:47.171Z,1008.89
2017-10-11T00:10:28.424Z,1008.9
2017-10-11T00:11:09.439Z,1008.92
2017-10-11T00:11:49.877Z,1008.88
2017-10-11T00:12:30.381Z,1008.89
2017-10-11T00:13:10.832Z,1008.88
2017-10-11T00:13:51.300Z,1008.87
2017-10-11T00:14:31.806Z,1008.87
2017-10-11T00:15:12.262Z,1008.83
2017-10-11T00:15:52.731Z,1008.82
2017-10-11T00:16:33.904Z,1008.78
2017-10-11T00:17:14.274Z,1008.81
2017-10-11T00:17:54.835Z,1008.75
2017-10-11T00:18:35.296Z,1008.77
2017-10-11T00:19:15.797Z,1008.72
2017-10-11T00:19:56.171Z,1008.72
2017-10-11T00:20:36.634Z,1008.71
2017-10-11T00:21:17.074Z,1008.77
2017-10-11T00:21:57.505Z,1008.72
2017-10-11T00:22:38.018Z,1008.66
2017-10-11T00:23:19.051Z,1008.66
2017-10-11T00:23:59.638Z,1008.69
2017-10-11T00:24:40.120Z,1008.68
2017-10-11T00:25:20.685Z,1008.71
2017-10-11T00:26:01.129Z,1008.69
2017-10-11T00:26:41.613Z,1008.71
2017-10-11T00:27:22.072Z,1008.76
2017-10-11T00:28:02.524Z,1008.75
2017-10-11T00:28:43.004Z,1008.76
2017-10-11T00:29:23.509Z,1008.75
2017-10-11T00:30:04.002Z,1008.75
2017-10-11T00:30:44.482Z,1008.71
2017-10-11T00:31:25.003Z,1008.72
2017-10-11T00:32:05.478Z,1008.69
2017-10-11T00:32:46.039Z,1008.7
2017-10-11T00:33:26.478Z,1008.69
2017-10-11T00:34:06.989Z,1008.68
2017-10-11T00:34:47.405Z,1008.64
2017-10-11T00:35:27.875Z,1008.65
2017-10-11T00:36:08.371Z,1008.67
2017-10-11T00:36:48.889Z,1008.65
2017-10-11T00:37:29.408Z,1008.67
2017-10-11T00:38:09.839Z,1008.65
2017-10-11T00:38:50.258Z,1008.67
2017-10-11T00:39:30.809Z,1008.69
2017-10-11T00:40:11.220Z,1008.69
2017-10-11T00:40:51.686Z,1008.7
2017-10-11T00:41:32.122Z,1008.7
2017-10-11T00:42:12.561Z,1008.68
2017-10-11T00:42:53.121Z,1008.69
2017-10-11T00:43:33.597Z,1008.67
2017-10-11T00:44:14.124Z,1008.67
2017-10-11T00:44:54.560Z,1008.65
2017-10-11T00:45:35.059Z,1008.66
2017-10-11T00:46:15.499Z,1008.64
2017-10-11T00:46:56.039Z,1008.63
2017-10-11T00:47:36.490Z,1008.66
2017-10-11T00:48:17.681Z,1008.65
2017-10-11T00:48:58.103Z,1008.61
2017-10-11T00:49:38.756Z,1008.63
2017-10-11T00:50:19.248Z,1008.6
2017-10-11T00:50:59.789Z,1008.64
2017-10-11T00:51:40.203Z,1008.67
2017-10-11T00:52:20.705Z,1008.64
2017-10-11T00:53:01.141Z,1008.63
2017-10-11T00:53:41.671Z,1008.66
2017-10-11T00:54:22.204Z,1008.62
2017-10-11T00:55:02.684Z,1008.58
2017-10-11T00:55:43.043Z,1008.58
2017-10-11T00:56:23.643Z,1008.6
2017-10-11T00:57:04.083Z,1008.61
2017-10-11T00:57:44.511Z,1008.59
2017-10-11T00:58:25.001Z,1008.6
2017-10-11T00:59:05.481Z,1008.57
2017-10-11T00:59:46.010Z,1008.58
2017-10-11T01:00:26.419Z,1008.56
2017-10-11T01:01:06.955Z,1008.56
2017-10-11T01:01:47.424Z,1008.55
2017-10-11T01:02:27.866Z,1008.57
2017-10-11T01:03:08.463Z,1008.56
2017-10-11T01:03:49.007Z,1008.58
2017-10-11T01:04:29.456Z,1008.6
2017-10-11T01:05:09.949Z,1008.59
2017-10-11T01:05:50.371Z,1008.56
2017-10-11T01:06:30.845Z,1008.59
2017-10-11T01:07:11.308Z,1008.58
2017-10-11T01:07:51.769Z,1008.58
2017-10-11T01:08:32.371Z,1008.57
2017-10-11T01:09:12.961Z,1008.56
2017-10-11T01:09:53.395Z,1008.59
2017-10-11T01:10:33.853Z,1008.59
2017-10-11T01:11:14.303Z,1008.56
2017-10-11T01:11:54.799Z,1008.59
2017-10-11T01:12:35.295Z,1008.58
2017-10-11T01:13:15.775Z,1008.56
2017-10-11T01:13:56.228Z,1008.58
2017-10-11T01:14:36.653Z,1008.61
2017-10-11T01:15:17.100Z,1008.6
2017-10-11T01:15:57.621Z,1008.58
2017-10-11T01:16:38.041Z,1008.6
2017-10-11T01:17:18.519Z,1008.6
2017-10-11T01:17:59.038Z,1008.62
2017-10-11T01:18:39.522Z,1008.61
2017-10-11T01:19:20.071Z,1008.59
2017-10-11T01:20:00.460Z,1008.63
2017-10-11T01:20:40.972Z,1008.6
2017-10-11T01:21:21.371Z,1008.6
2017-10-11T01:22:01.857Z,1008.57
2017-10-11T01:22:42.324Z,1008.61
2017-10-11T01:23:22.753Z,1008.56
2017-10-11T01:24:03.206Z,1008.61
2017-10-11T01:24:43.732Z,1008.58
2017-10-11T01:25:24.189Z,1008.6
2017-10-11T01:26:04.654Z,1008.58
2017-10-11T01:26:45.052Z,1008.61
2017-10-11T01:27:25.506Z,1008.57
2017-10-11T01:28:05.965Z,1008.62
2017-10-11T01:28:46.487Z,1008.63
2017-10-11T01:29:26.940Z,1008.66
2017-10-11T01:30:07.545Z,1008.63
2017-10-11T01:30:47.901Z,1008.63
2017-10-11T01:31:28.383Z,1008.63
2017-10-11T01:32:08.867Z,1008.65
2017-10-11T01:32:49.379Z,1008.68
2017-10-11T01:33:29.899Z,1008.65
2017-10-11T01:34:10.329Z,1008.67
2017-10-11T01:34:50.745Z,1008.7
2017-10-11T01:35:31.173Z,1008.66
2017-10-11T01:36:11.697Z,1008.68
2017-10-11T01:36:52.876Z,1008.67
2017-10-11T01:37:33.407Z,1008.69
2017-10-11T01:38:14.575Z,1008.66
2017-10-11T01:38:54.989Z,1008.65
2017-10-11T01:39:36.403Z,1008.62
2017-10-11T01:40:16.903Z,1008.68
2017-10-11T01:40:57.300Z,1008.66
2017-10-11T01:41:37.735Z,1008.67
2017-10-11T01:42:18.235Z,1008.64
2017-10-11T01:42:58.693Z,1008.63
2017-10-11T01:43:39.246Z,1008.61
2017-10-11T01:44:19.681Z,1008.61
2017-10-11T01:45:00.126Z,1008.65
2017-10-11T01:45:40.588Z,1008.62
2017-10-11T01:46:21.063Z,1008.6
2017-10-11T01:47:01.548Z,1008.68
2017-10-11T01:47:42.008Z,1008.69
2017-10-11T01:48:22.501Z,1008.66
2017-10-11T01:49:03.159Z,1008.64
2017-10-11T01:49:43.616Z,1008.63
2017-10-11T01:50:24.081Z,1008.63
2017-10-11T01:51:04.491Z,1008.63
2017-10-11T01:51:44.956Z,1008.68
2017-10-11T01:52:25.402Z,1008.66
2017-10-11T01:53:05.854Z,1008.63
2017-10-11T01:53:46.404Z,1008.65
2017-10-11T01:54:26.865Z,1008.64
2017-10-11T01:55:07.327Z,1008.64
2017-10-11T01:55:47.803Z,1008.66
2017-10-11T01:56:28.256Z,1008.66
2017-10-11T01:57:08.714Z,1008.66
2017-10-11T01:57:49.231Z,1008.67
2017-10-11T01:58:29.600Z,1008.68
2017-10-11T01:59:10.044Z,1008.67
2017-10-11T01:59:50.517Z,1008.63
2017-10-11T02:02:09.896Z,1008.66
2017-10-11T02:02:50.278Z,1008.66
2017-10-11T02:03:30.757Z,1008.66
2017-10-11T02:04:11.142Z,1008.63
2017-10-11T02:04:51.628Z,1008.68
2017-10-11T02:05:32.120Z,1008.67
2017-10-11T02:06:12.610Z,1008.69
2017-10-11T02:06:53.104Z,1008.66
2017-10-11T02:07:33.588Z,1008.66
2017-10-11T02:08:14.056Z,1008.66
2017-10-11T02:08:54.554Z,1008.65
2017-10-11T02:09:34.998Z,1008.65
2017-10-11T02:10:16.044Z,1008.66
2017-10-11T02:10:56.533Z,1008.69
2017-10-11T02:11:37.075Z,1008.67
2017-10-11T02:12:17.550Z,1008.67
2017-10-11T02:12:57.992Z,1008.66
2017-10-11T02:13:38.575Z,1008.69
2017-10-11T02:14:19.014Z,1008.68
2017-10-11T02:14:59.469Z,1008.68
2017-10-11T02:15:39.942Z,1008.67
2017-10-11T02:16:21.016Z,1008.69
2017-10-11T02:17:01.521Z,1008.7
2017-10-11T02:17:41.910Z,1008.68
2017-10-11T02:18:22.357Z,1008.69
2017-10-11T02:19:02.837Z,1008.71
2017-10-11T02:19:43.242Z,1008.66
2017-10-11T02:20:23.706Z,1008.67
2017-10-11T02:21:04.210Z,1008.65
2017-10-11T02:21:44.644Z,1008.64
2017-10-11T02:22:25.105Z,1008.64
2017-10-11T02:23:05.667Z,1008.66
2017-10-11T02:23:46.149Z,1008.62
2017-10-11T02:24:26.560Z,1008.62
2017-10-11T02:25:07.055Z,1008.61
2017-10-11T02:25:47.561Z,1008.63
2017-10-11T02:26:27.977Z,1008.66
2017-10-11T02:27:08.521Z,1008.6
2017-10-11T02:27:48.965Z,1008.64
2017-10-11T02:28:29.408Z,1008.6
2017-10-11T02:29:09.864Z,1008.58
2017-10-11T02:29:50.278Z,1008.62
2017-10-11T02:30:30.741Z,1008.6
2017-10-11T02:31:11.171Z,1008.6
2017-10-11T02:31:51.659Z,1008.6
2017-10-11T02:32:32.196Z,1008.6
2017-10-11T02:33:12.665Z,1008.61
2017-10-11T02:33:53.115Z,1008.59
2017-10-11T02:34:33.551Z,1008.6
2017-10-11T02:35:13.999Z,1008.64
2017-10-11T02:35:54.515Z,1008.6
2017-10-11T02:36:34.922Z,1008.62
2017-10-11T02:37:15.410Z,1008.57
2017-10-11T02:37:55.790Z,1008.59
2017-10-11T02:38:36.220Z,1008.59
2017-10-11T02:39:16.713Z,1008.59
2017-10-11T02:39:57.123Z,1008.61
2017-10-11T02:40:37.623Z,1008.57
2017-10-11T02:41:18.016Z,1008.6
2017-10-11T02:41:58.460Z,1008.61
2017-10-11T02:42:38.923Z,1008.61
2017-10-11T02:43:19.388Z,1008.61
2017-10-11T02:43:59.840Z,1008.6
2017-10-11T02:44:40.310Z,1008.58
2017-10-11T02:45:20.771Z,1008.59
2017-10-11T02:46:01.265Z,1008.59
2017-10-11T02:46:41.772Z,1008.6
2017-10-11T02:47:22.242Z,1008.57
2017-10-11T02:48:02.661Z,1008.55
2017-10-11T02:48:43.117Z,1008.57
2017-10-11T02:49:23.609Z,1008.58
2017-10-11T02:50:03.973Z,1008.61
2017-10-11T02:50:44.458Z,1008.62
2017-10-11T02:51:25.721Z,1008.63
2017-10-11T02:52:06.161Z,1008.58
2017-10-11T02:52:46.622Z,1008.6
2017-10-11T02:53:27.047Z,1008.61
2017-10-11T02:54:07.561Z,1008.6
2017-10-11T02:54:48.042Z,1008.61
2017-10-11T02:55:28.565Z,1008.63
2017-10-11T02:56:09.095Z,1008.63
2017-10-11T02:56:49.564Z,1008.61
2017-10-11T02:57:29.960Z,1008.63
2017-10-11T02:58:10.408Z,1008.63
2017-10-11T02:58:50.949Z,1008.64
2017-10-11T02:59:31.351Z,1008.62
2017-10-11T03:00:11.803Z,1008.64
2017-10-11T03:00:52.290Z,1008.65
2017-10-11T03:01:32.807Z,1008.64
2017-10-11T03:02:13.265Z,1008.66
2017-10-11T03:02:53.703Z,1008.63
2017-10-11T03:03:34.225Z,1008.64
2017-10-11T03:04:14.646Z,1008.64
2017-10-11T03:04:55.142Z,1008.64
2017-10-11T03:05:35.595Z,1008.67
2017-10-11T03:06:16.101Z,1008.61
2017-10-11T03:06:56.587Z,1008.64
2017-10-11T03:07:37.092Z,1008.61
2017-10-11T03:08:17.651Z,1008.65
2017-10-11T03:08:58.187Z,1008.59
2017-10-11T03:09:38.750Z,1008.64
2017-10-11T03:10:19.337Z,1008.62
2017-10-11T03:12:12.645Z,1008.63
2017-10-11T03:12:53.052Z,1008.63
2017-10-11T03:13:33.608Z,1008.65
2017-10-11T03:14:14.097Z,1008.6
2017-10-11T03:14:54.619Z,1008.62
2017-10-11T03:15:35.082Z,1008.64
2017-10-11T03:16:15.586Z,1008.61
2017-10-11T03:16:56.056Z,1008.64
2017-10-11T03:17:36.585Z,1008.63
2017-10-11T03:18:16.991Z,1008.62
2017-10-11T03:18:57.644Z,1008.63
2017-10-11T03:19:38.149Z,1008.62
2017-10-11T03:20:18.664Z,1008.64
2017-10-11T03:20:59.135Z,1008.63
2017-10-11T03:21:39.613Z,1008.66
2017-10-11T03:22:20.217Z,1008.63
2017-10-11T03:23:00.630Z,1008.65
2017-10-11T03:23:41.055Z,1008.64
2017-10-11T03:24:21.501Z,1008.65
2017-10-11T03:25:01.989Z,1008.65
2017-10-11T03:25:42.403Z,1008.66
2017-10-11T03:26:22.904Z,1008.68
2017-10-11T03:27:03.371Z,1008.66
2017-10-11T03:27:43.843Z,1008.63
2017-10-11T03:28:24.375Z,1008.64
2017-10-11T03:29:04.826Z,1008.65
2017-10-11T03:29:46.805Z,1008.69
2017-10-11T03:30:27.258Z,1008.69
2017-10-11T03:31:07.695Z,1008.7
2017-10-11T03:31:48.746Z,1008.69
2017-10-11T03:32:29.188Z,1008.72
2017-10-11T03:33:09.569Z,1008.65
2017-10-11T03:33:50.031Z,1008.7
2017-10-11T03:34:30.457Z,1008.7
2017-10-11T03:35:11.021Z,1008.71
2017-10-11T03:35:51.373Z,1008.68
2017-10-11T03:36:31.880Z,1008.69
2017-10-11T03:37:12.294Z,1008.7
2017-10-11T03:37:52.835Z,1008.7
2017-10-11T03:38:33.255Z,1008.67
2017-10-11T03:39:13.648Z,1008.66
2017-10-11T03:39:54.143Z,1008.66
2017-10-11T03:40:34.663Z,1008.69
2017-10-11T03:41:15.038Z,1008.71
2017-10-11T03:41:55.524Z,1008.68
2017-10-11T03:42:36.031Z,1008.69
2017-10-11T03:43:16.499Z,1008.69
2017-10-11T03:43:56.980Z,1008.65
2017-10-11T03:44:37.424Z,1008.66
2017-10-11T03:45:17.865Z,1008.69
2017-10-11T03:45:58.321Z,1008.68
2017-10-11T03:46:38.792Z,1008.69
2017-10-11T03:47:19.371Z,1008.65
2017-10-11T03:47:59.838Z,1008.67
2017-10-11T03:48:40.280Z,1008.69
2017-10-11T03:49:20.817Z,1008.66
2017-10-11T03:50:01.306Z,1008.65
2017-10-11T03:50:41.765Z,1008.68
2017-10-11T03:51:22.187Z,1008.68
2017-10-11T03:52:03.321Z,1008.7
2017-10-11T03:52:43.730Z,1008.7
2017-10-11T03:53:24.218Z,1008.72
2017-10-11T03:54:04.631Z,1008.7
2017-10-11T03:54:45.034Z,1008.69
2017-10-11T03:55:25.559Z,1008.68
2017-10-11T03:56:05.944Z,1008.66
2017-10-11T03:56:46.426Z,1008.66
2017-10-11T03:57:26.909Z,1008.64
2017-10-11T03:58:07.332Z,1008.67
2017-10-11T03:58:47.838Z,1008.63
2017-10-11T03:59:28.329Z,1008.68
2017-10-11T04:00:08.729Z,1008.67
2017-10-11T04:00:49.209Z,1008.69
2017-10-11T04:01:29.645Z,1008.66
2017-10-11T04:02:10.083Z,1008.68
2017-10-11T04:02:50.537Z,1008.71
2017-10-11T04:03:31.091Z,1008.69
2017-10-11T04:04:11.507Z,1008.69
2017-10-11T04:04:51.972Z,1008.72
2017-10-11T04:05:32.380Z,1008.73
2017-10-11T04:06:12.998Z,1008.71
2017-10-11T04:06:53.344Z,1008.73
2017-10-11T04:07:33.810Z,1008.71
2017-10-11T04:08:14.307Z,1008.7
2017-10-11T04:08:54.762Z,1008.69
2017-10-11T04:09:35.976Z,1008.68
2017-10-11T04:10:16.487Z,1008.72
2017-10-11T04:12:35.342Z,1008.69
2017-10-11T04:13:15.803Z,1008.69
2017-10-11T04:13:56.214Z,1008.68
2017-10-11T04:14:36.745Z,1008.68
2017-10-11T04:15:17.132Z,1008.71
2017-10-11T04:15:57.641Z,1008.69
2017-10-11T04:16:38.065Z,1008.7
2017-10-11T04:17:18.589Z,1008.7
2017-10-11T04:17:59.031Z,1008.69
2017-10-11T04:18:39.477Z,1008.67
2017-10-11T04:19:19.925Z,1008.73
2017-10-11T04:20:00.364Z,1008.68
2017-10-11T04:20:41.868Z,1008.7
2017-10-11T04:21:22.344Z,1008.68
2017-10-11T04:22:02.906Z,1008.69
2017-10-11T04:22:43.349Z,1008.72
2017-10-11T04:23:23.903Z,1008.7
2017-10-11T04:24:04.452Z,1008.69
2017-10-11T04:24:44.828Z,1008.67
2017-10-11T04:25:25.313Z,1008.64
2017-10-11T04:26:06.386Z,1008.65
2017-10-11T04:26:46.811Z,1008.69
2017-10-11T04:27:27.254Z,1008.66
2017-10-11T04:28:07.847Z,1008.62
2017-10-11T04:28:48.398Z,1008.67
2017-10-11T04:29:29.010Z,1008.65
2017-10-11T04:30:09.318Z,1008.63
2017-10-11T04:30:49.786Z,1008.69
2017-10-11T04:31:30.217Z,1008.65
2017-10-11T04:32:10.699Z,1008.65
2017-10-11T04:32:51.152Z,1008.69
2017-10-11T04:33:31.716Z,1008.66
2017-10-11T04:34:12.185Z,1008.66
2017-10-11T04:34:52.699Z,1008.66
2017-10-11T04:35:33.179Z,1008.66
2017-10-11T04:36:13.629Z,1008.64
2017-10-11T04:36:54.197Z,1008.64
2017-10-11T04:37:34.588Z,1008.64
2017-10-11T04:38:15.052Z,1008.64
2017-10-11T04:38:55.650Z,1008.61
2017-10-11T04:39:36.033Z,1008.63
2017-10-11T04:40:16.474Z,1008.61
2017-10-11T04:40:56.937Z,1008.61
2017-10-11T04:41:37.475Z,1008.64
2017-10-11T04:42:17.927Z,1008.62
2017-10-11T04:42:58.542Z,1008.62
2017-10-11T04:43:38.923Z,1008.62
2017-10-11T04:44:19.479Z,1008.64
2017-10-11T04:44:59.943Z,1008.61
2017-10-11T04:45:40.504Z,1008.65
2017-10-11T04:46:20.917Z,1008.61
2017-10-11T04:47:02.699Z,1008.64
2017-10-11T04:47:43.357Z,1008.57
2017-10-11T04:48:23.789Z,1008.59
2017-10-11T04:49:04.231Z,1008.57
2017-10-11T04:49:44.754Z,1008.6
2017-10-11T04:50:25.184Z,1008.55
2017-10-11T04:51:05.595Z,1008.6
2017-10-11T04:51:46.123Z,1008.6
2017-10-11T04:52:26.549Z,1008.55
2017-10-11T04:53:06.955Z,1008.58
2017-10-11T04:53:47.423Z,1008.57
2017-10-11T04:54:27.901Z,1008.55
2017-10-11T04:55:08.512Z,1008.54
2017-10-11T04:55:48.938Z,1008.55
2017-10-11T04:56:29.653Z,1008.52
2017-10-11T04:57:10.064Z,1008.5
2017-10-11T04:57:50.569Z,1008.51
2017-10-11T04:58:31.021Z,1008.49
2017-10-11T04:59:11.467Z,1008.47
2017-10-11T04:59:51.951Z,1008.5
2017-10-11T05:00:32.448Z,1008.46
2017-10-11T05:01:12.924Z,1008.48
2017-10-11T05:01:54.128Z,1008.49
2017-10-11T05:02:34.599Z,1008.46
2017-10-11T05:03:15.107Z,1008.47
2017-10-11T05:03:55.599Z,1008.48
2017-10-11T05:04:36.022Z,1008.47
2017-10-11T05:05:16.503Z,1008.48
2017-10-11T05:05:56.981Z,1008.5
2017-10-11T05:06:37.460Z,1008.48
2017-10-11T05:07:17.957Z,1008.46
2017-10-11T05:07:58.496Z,1008.47
2017-10-11T05:08:38.974Z,1008.44
2017-10-11T05:09:19.403Z,1008.45
2017-10-11T05:10:00.094Z,1008.44
2017-10-11T05:10:40.715Z,1008.47
2017-10-11T05:11:21.223Z,1008.46
2017-10-11T05:12:01.697Z,1008.47
2017-10-11T05:12:42.113Z,1008.49
2017-10-11T05:13:22.551Z,1008.49
2017-10-11T05:14:03.052Z,1008.47
2017-10-11T05:14:43.466Z,1008.51
2017-10-11T05:15:24.097Z,1008.46
2017-10-11T05:16:04.525Z,1008.51
2017-10-11T05:16:45.219Z,1008.49
2017-10-11T05:17:25.462Z,1008.49
2017-10-11T05:18:05.996Z,1008.49
2017-10-11T05:18:46.429Z,1008.52
2017-10-11T05:19:26.863Z,1008.52
2017-10-11T05:20:07.327Z,1008.52
2017-10-11T05:20:47.986Z,1008.49
2017-10-11T05:21:28.669Z,1008.52
2017-10-11T05:22:09.521Z,1008.5
2017-10-11T05:22:50.168Z,1008.54
2017-10-11T05:23:31.006Z,1008.52
2017-10-11T05:24:11.746Z,1008.54
2017-10-11T05:24:52.407Z,1008.53
2017-10-11T05:25:33.151Z,1008.56
2017-10-11T05:26:13.857Z,1008.5
2017-10-11T05:26:54.474Z,1008.5
2017-10-11T05:27:35.058Z,1008.53
2017-10-11T05:28:15.504Z,1008.49
2017-10-11T05:28:56.047Z,1008.5
2017-10-11T05:29:36.561Z,1008.52
2017-10-11T05:30:17.115Z,1008.43
2017-10-11T05:30:57.813Z,1008.51
2017-10-11T05:31:38.552Z,1008.51
2017-10-11T05:32:19.257Z,1008.54
2017-10-11T05:32:59.753Z,1008.54
2017-10-11T05:33:40.189Z,1008.52
2017-10-11T05:34:20.650Z,1008.56
2017-10-11T05:35:01.164Z,1008.53
2017-10-11T05:35:41.762Z,1008.57
2017-10-11T05:36:22.296Z,1008.52
2017-10-11T05:37:03.564Z,1008.55
2017-10-11T05:37:44.238Z,1008.5
2017-10-11T05:38:24.941Z,1008.55
2017-10-11T05:39:05.609Z,1008.58
2017-10-11T05:39:46.147Z,1008.58
2017-10-11T05:40:26.837Z,1008.56
2017-10-11T05:41:07.541Z,1008.55
2017-10-11T05:41:48.145Z,1008.57
2017-10-11T05:42:28.782Z,1008.6
2017-10-11T05:43:09.438Z,1008.6
2017-10-11T05:43:50.118Z,1008.63
2017-10-11T05:44:30.805Z,1008.65
2017-10-11T05:45:11.498Z,1008.63
2017-10-11T05:45:52.214Z,1008.59
2017-10-11T05:46:32.728Z,1008.66
2017-10-11T05:47:13.154Z,1008.68
2017-10-11T05:47:53.619Z,1008.67
2017-10-11T05:48:34.047Z,1008.67
2017-10-11T05:49:14.591Z,1008.64
2017-10-11T05:49:55.092Z,1008.64
2017-10-11T05:50:35.533Z,1008.67
2017-10-11T05:51:16.142Z,1008.72
2017-10-11T05:51:56.871Z,1008.67
2017-10-11T05:52:37.484Z,1008.66
2017-10-11T05:53:18.272Z,1008.67
2017-10-11T05:53:58.851Z,1008.67
2017-10-11T05:54:39.524Z,1008.67
2017-10-11T05:55:20.175Z,1008.64
2017-10-11T05:56:00.734Z,1008.66
2017-10-11T05:56:41.448Z,1008.7
2017-10-11T05:57:22.080Z,1008.67
2017-10-11T05:58:02.703Z,1008.7
2017-10-11T05:58:43.331Z,1008.7
2017-10-11T05:59:23.982Z,1008.71
2017-10-11T06:00:04.607Z,1008.73
2017-10-11T06:00:45.188Z,1008.69
2017-10-11T06:01:25.810Z,1008.72
2017-10-11T06:02:06.481Z,1008.71
2017-10-11T06:02:47.180Z,1008.73
2017-10-11T06:03:27.905Z,1008.71
2017-10-11T06:04:08.556Z,1008.72
2017-10-11T06:04:49.264Z,1008.73
2017-10-11T06:05:29.968Z,1008.78
2017-10-11T06:06:10.695Z,1008.74
2017-10-11T06:06:51.308Z,1008.76
2017-10-11T06:07:32.025Z,1008.75
2017-10-11T06:08:12.640Z,1008.73
2017-10-11T06:08:53.490Z,1008.74
2017-10-11T06:09:34.178Z,1008.77
2017-10-11T06:10:14.830Z,1008.77
2017-10-11T06:10:55.511Z,1008.79
2017-10-11T06:11:36.149Z,1008.76
2017-10-11T06:12:16.757Z,1008.75
2017-10-11T06:12:57.305Z,1008.77
2017-10-11T06:13:37.877Z,1008.74
2017-10-11T06:14:18.602Z,1008.8
2017-10-11T06:14:59.185Z,1008.79
2017-10-11T06:15:39.918Z,1008.76
2017-10-11T06:16:20.591Z,1008.76
2017-10-11T06:17:01.180Z,1008.78
2017-10-11T06:17:41.966Z,1008.77
2017-10-11T06:18:22.523Z,1008.82
2017-10-11T06:19:03.217Z,1008.81
2017-10-11T06:19:43.790Z,1008.81
2017-10-11T06:20:24.456Z,1008.8
2017-10-11T06:21:05.101Z,1008.79
2017-10-11T06:21:45.729Z,1008.8
2017-10-11T06:22:26.251Z,1008.82
2017-10-11T06:23:06.931Z,1008.81
2017-10-11T06:23:47.530Z,1008.8
2017-10-11T06:24:28.166Z,1008.79
2017-10-11T06:25:08.944Z,1008.83
2017-10-11T06:25:49.671Z,1008.81
2017-10-11T06:26:30.296Z,1008.81
2017-10-11T06:27:10.919Z,1008.81
2017-10-11T06:27:51.510Z,1008.84
2017-10-11T06:28:32.139Z,1008.83
2017-10-11T06:29:12.806Z,1008.85
2017-10-11T06:29:53.543Z,1008.87
2017-10-11T06:30:34.306Z,1008.85
2017-10-11T06:31:15.009Z,1008.84
2017-10-11T06:31:55.674Z,1008.88
2017-10-11T06:32:36.352Z,1008.87
2017-10-11T06:33:17.076Z,1008.88
2017-10-11T06:33:57.710Z,1008.91
2017-10-11T06:34:38.316Z,1008.87
2017-10-11T06:35:18.956Z,1008.89
2017-10-11T06:35:59.639Z,1008.91
2017-10-11T06:36:40.293Z,1008.88
2017-10-11T06:37:20.925Z,1008.88
2017-10-11T06:38:01.523Z,1008.9
2017-10-11T06:38:42.179Z,1008.89
2017-10-11T06:39:22.896Z,1008.94
2017-10-11T06:40:03.336Z,1008.97
2017-10-11T06:40:44.044Z,1008.93
2017-10-11T06:41:24.673Z,1008.96
2017-10-11T06:42:05.387Z,1008.98
2017-10-11T06:42:45.961Z,1008.95
2017-10-11T06:43:26.728Z,1008.97
2017-10-11T06:44:07.446Z,1008.98
2017-10-11T06:44:47.960Z,1008.97
2017-10-11T06:45:28.666Z,1008.96
2017-10-11T06:46:09.235Z,1009.02
2017-10-11T06:46:49.931Z,1009
2017-10-11T06:47:30.551Z,1008.99
2017-10-11T06:48:11.330Z,1008.99
2017-10-11T06:48:52.732Z,1009.05
2017-10-11T06:49:33.202Z,1009.03
2017-10-11T06:50:13.696Z,1009.02
2017-10-11T06:50:54.794Z,1009.01
2017-10-11T06:51:35.367Z,1009.03
2017-10-11T06:52:15.988Z,1009.01
2017-10-11T06:52:57.286Z,1009.04
2017-10-11T06:53:37.750Z,1009.02
2017-10-11T06:54:18.317Z,1009
2017-10-11T06:54:58.775Z,1009.02
2017-10-11T06:55:39.240Z,1008.97
2017-10-11T06:56:19.744Z,1008.98
2017-10-11T06:57:00.273Z,1008.98
2017-10-11T06:57:40.768Z,1008.98
2017-10-11T06:58:21.260Z,1008.96
2017-10-11T06:59:01.743Z,1008.99
2017-10-11T06:59:42.352Z,1008.99
2017-10-11T07:00:22.913Z,1009.05
2017-10-11T07:01:03.200Z,1009.04
2017-10-11T07:01:43.620Z,1009
2017-10-11T07:02:24.128Z,1008.98
2017-10-11T07:03:04.889Z,1009.05
2017-10-11T07:03:45.214Z,1009.03
2017-10-11T07:04:25.845Z,1009.04
2017-10-11T07:05:06.409Z,1009.07
2017-10-11T07:05:46.985Z,1009.06
2017-10-11T07:06:27.672Z,1009.09
2017-10-11T07:07:08.279Z,1009.09
2017-10-11T07:07:48.976Z,1009.14
2017-10-11T07:08:29.691Z,1009.12
2017-10-11T07:09:10.289Z,1009.09
2017-10-11T07:09:50.747Z,1009.12
2017-10-11T07:10:31.294Z,1009.13
2017-10-11T07:11:12.093Z,1009.13
2017-10-11T07:11:52.586Z,1009.12
2017-10-11T07:12:33.075Z,1009.15
2017-10-11T07:13:13.578Z,1009.13
2017-10-11T07:13:54.048Z,1009.16
2017-10-11T07:14:34.552Z,1009.12
2017-10-11T07:15:15.025Z,1009.12
2017-10-11T07:15:55.557Z,1009.15
2017-10-11T07:16:36.021Z,1009.15
2017-10-11T07:17:16.487Z,1009.19
2017-10-11T07:17:56.941Z,1009.14
2017-10-11T07:18:37.518Z,1009.13
2017-10-11T07:19:18.154Z,1009.12
2017-10-11T07:19:58.635Z,1009.19
2017-10-11T07:20:39.172Z,1009.14
2017-10-11T07:21:19.580Z,1009.17
2017-10-11T07:22:00.039Z,1009.17
2017-10-11T07:22:40.559Z,1009.18
2017-10-11T07:23:21.021Z,1009.19
2017-10-11T07:24:01.536Z,1009.17
2017-10-11T07:24:42.121Z,1009.17
2017-10-11T07:25:23.562Z,1009.19
2017-10-11T07:26:04.095Z,1009.24
2017-10-11T07:26:44.640Z,1009.26
2017-10-11T07:27:25.068Z,1009.28
2017-10-11T07:28:05.657Z,1009.3
2017-10-11T07:28:46.157Z,1009.33
2017-10-11T07:29:26.676Z,1009.3
2017-10-11T07:30:07.155Z,1009.26
2017-10-11T07:30:47.634Z,1009.3
2017-10-11T07:31:28.109Z,1009.28
2017-10-11T07:32:08.588Z,1009.35
2017-10-11T07:32:49.044Z,1009.31
2017-10-11T07:33:29.530Z,1009.35
2017-10-11T07:34:10.119Z,1009.38
2017-10-11T07:34:50.671Z,1009.36
2017-10-11T07:35:31.169Z,1009.36
2017-10-11T07:36:11.732Z,1009.41
2017-10-11T07:36:52.263Z,1009.35
2017-10-11T07:37:33.419Z,1009.29
2017-10-11T07:38:13.883Z,1009.33
2017-10-11T07:38:54.361Z,1009.35
2017-10-11T07:39:34.798Z,1009.35
2017-10-11T07:40:15.253Z,1009.34
2017-10-11T07:40:55.728Z,1009.35
2017-10-11T07:41:36.476Z,1009.37
2017-10-11T07:42:16.984Z,1009.39
2017-10-11T07:42:57.426Z,1009.36
2017-10-11T07:43:37.960Z,1009.41
2017-10-11T07:44:18.411Z,1009.36
2017-10-11T07:44:58.871Z,1009.36
2017-10-11T07:45:39.391Z,1009.37
2017-10-11T07:46:20.467Z,1009.39
2017-10-11T07:47:01.642Z,1009.37
2017-10-11T07:47:42.053Z,1009.39
2017-10-11T07:48:22.537Z,1009.39
2017-10-11T07:49:03.062Z,1009.43
2017-10-11T07:49:43.647Z,1009.39
2017-10-11T07:50:24.165Z,1009.37
2017-10-11T07:51:04.629Z,1009.39
2017-10-11T07:51:45.116Z,1009.43
2017-10-11T07:52:25.598Z,1009.44
2017-10-11T07:53:06.050Z,1009.38
2017-10-11T07:53:46.561Z,1009.4
2017-10-11T07:54:27.093Z,1009.42
2017-10-11T07:55:07.574Z,1009.4
2017-10-11T07:55:48.037Z,1009.41
2017-10-11T07:56:28.483Z,1009.39
2017-10-11T07:57:09.031Z,1009.4
2017-10-11T07:57:49.507Z,1009.39
2017-10-11T07:58:29.988Z,1009.45
2017-10-11T07:59:10.457Z,1009.4
2017-10-11T07:59:50.899Z,1009.43
2017-10-11T08:00:31.361Z,1009.43
2017-10-11T08:01:11.894Z,1009.45
2017-10-11T08:01:52.542Z,1009.42
2017-10-11T08:02:32.993Z,1009.42
2017-10-11T08:03:13.492Z,1009.42
2017-10-11T08:03:53.935Z,1009.38
2017-10-11T08:04:34.420Z,1009.41
2017-10-11T08:05:14.949Z,1009.44
2017-10-11T08:05:55.620Z,1009.41
2017-10-11T08:06:36.000Z,1009.36
2017-10-11T08:07:16.556Z,1009.4
2017-10-11T08:07:57.037Z,1009.43
2017-10-11T08:08:38.503Z,1009.41
2017-10-11T08:09:19.103Z,1009.37
2017-10-11T08:09:59.604Z,1009.44
2017-10-11T08:10:40.087Z,1009.46
2017-10-11T08:11:20.653Z,1009.5
2017-10-11T08:12:01.266Z,1009.46
2017-10-11T08:12:41.758Z,1009.54
2017-10-11T08:13:22.291Z,1009.52
2017-10-11T08:14:02.764Z,1009.49
2017-10-11T08:14:43.946Z,1009.52
2017-10-11T08:15:24.478Z,1009.54
2017-10-11T08:16:05.010Z,1009.6
2017-10-11T08:16:45.424Z,1009.56